sensor_id;sensor_type;location;lat;lon;timestamp;temperature;humidity
15231;DHT22;32569;51.762;8.564;2023-05-27T00:01:13;10.00;99.90
15231;DHT22;32569;51.762;8.564;2023-05-27T00:03:40;10.00;99.90
15231;DHT22;32569;51.762;8.564;2023-05-27T00:06:06;10.00;99.90
15231;DHT22;32569;51.762;8.564;2023-05-27T00:08:33;9.90;99.90
15231;DHT22;32569;51.762;8.564;2023-05-27T00:11:01;9.90;99.90
15231;DHT22;32569;51.762;8.564;2023-05-27T00:13:28;10.10;99.90
15231;DHT22;32569;51.762;8.564;2023-05-27T00:15:54;10.20;99.90
15231;DHT22;32569;51.762;8.564;2023-05-27T00:18:21;10.10;99.90
15231;DHT22;32569;51.762;8.564;2023-05-27T00:20:48;10.00;99.90
15231;DHT22;32569;51.762;8.564;2023-05-27T00:23:15;9.90;99.90
15231;DHT22;32569;51.762;8.564;2023-05-27T00:25:41;9.80;99.90
15231;DHT22;32569;51.762;8.564;2023-05-27T00:28:10;9.70;99.90
15231;DHT22;32569;51.762;8.564;2023-05-27T00:30:36;9.70;99.90
15231;DHT22;32569;51.762;8.564;2023-05-27T00:33:03;9.70;99.90
15231;DHT22;32569;51.762;8.564;2023-05-27T00:35:30;9.60;99.90
15231;DHT22;32569;51.762;8.564;2023-05-27T00:37:57;9.50;99.90
15231;DHT22;32569;51.762;8.564;2023-05-27T00:40:25;9.50;99.90
15231;DHT22;32569;51.762;8.564;2023-05-27T00:42:52;9.40;99.90
15231;DHT22;32569;51.762;8.564;2023-05-27T00:45:20;9.30;99.90
15231;DHT22;32569;51.762;8.564;2023-05-27T00:47:47;9.40;99.90
15231;DHT22;32569;51.762;8.564;2023-05-27T00:50:15;9.30;99.90
15231;DHT22;32569;51.762;8.564;2023-05-27T00:52:43;9.30;99.90
15231;DHT22;32569;51.762;8.564;2023-05-27T00:55:09;9.30;99.90
15231;DHT22;32569;51.762;8.564;2023-05-27T00:57:36;9.20;99.90
15231;DHT22;32569;51.762;8.564;2023-05-27T01:00:03;9.30;99.90
15231;DHT22;32569;51.762;8.564;2023-05-27T01:02:36;9.20;99.90
15231;DHT22;32569;51.762;8.564;2023-05-27T01:05:06;9.20;99.90
15231;DHT22;32569;51.762;8.564;2023-05-27T01:07:41;9.20;99.90
15231;DHT22;32569;51.762;8.564;2023-05-27T01:10:17;9.20;99.90
15231;DHT22;32569;51.762;8.564;2023-05-27T01:12:50;9.30;99.90
15231;DHT22;32569;51.762;8.564;2023-05-27T01:15:22;9.20;99.90
15231;DHT22;32569;51.762;8.564;2023-05-27T01:17:53;9.10;99.90
15231;DHT22;32569;51.762;8.564;2023-05-27T01:20:23;9.10;99.90
15231;DHT22;32569;51.762;8.564;2023-05-27T01:22:51;9.00;99.90
15231;DHT22;32569;51.762;8.564;2023-05-27T01:25:19;9.10;99.90
15231;DHT22;32569;51.762;8.564;2023-05-27T01:27:46;9.10;99.90
15231;DHT22;32569;51.762;8.564;2023-05-27T01:30:13;9.00;99.90
15231;DHT22;32569;51.762;8.564;2023-05-27T01:32:49;9.10;99.90
15231;DHT22;32569;51.762;8.564;2023-05-27T01:35:24;9.00;99.90
15231;DHT22;32569;51.762;8.564;2023-05-27T01:37:54;8.90;99.90
15231;DHT22;32569;51.762;8.564;2023-05-27T01:40:22;9.00;99.90
15231;DHT22;32569;51.762;8.564;2023-05-27T01:42:50;9.00;99.90
15231;DHT22;32569;51.762;8.564;2023-05-27T01:45:16;8.90;99.90
15231;DHT22;32569;51.762;8.564;2023-05-27T01:47:44;8.90;99.90
15231;DHT22;32569;51.762;8.564;2023-05-27T01:50:10;8.90;99.90
15231;DHT22;32569;51.762;8.564;2023-05-27T01:52:37;8.80;99.90
15231;DHT22;32569;51.762;8.564;2023-05-27T01:55:06;8.80;99.90
15231;DHT22;32569;51.762;8.564;2023-05-27T01:57:33;8.80;99.90
15231;DHT22;32569;51.762;8.564;2023-05-27T01:59:59;8.70;99.90
15231;DHT22;32569;51.762;8.564;2023-05-27T02:02:26;8.70;99.90
15231;DHT22;32569;51.762;8.564;2023-05-27T02:04:53;8.70;99.90
15231;DHT22;32569;51.762;8.564;2023-05-27T02:07:19;8.70;99.90
15231;DHT22;32569;51.762;8.564;2023-05-27T02:09:46;8.70;99.90
15231;DHT22;32569;51.762;8.564;2023-05-27T02:12:14;8.70;99.90
15231;DHT22;32569;51.762;8.564;2023-05-27T02:14:44;8.70;99.90
15231;DHT22;32569;51.762;8.564;2023-05-27T02:17:10;8.70;99.90
15231;DHT22;32569;51.762;8.564;2023-05-27T02:19:40;8.70;99.90
15231;DHT22;32569;51.762;8.564;2023-05-27T02:22:06;8.70;99.90
15231;DHT22;32569;51.762;8.564;2023-05-27T02:24:33;8.70;99.90
15231;DHT22;32569;51.762;8.564;2023-05-27T02:27:00;8.70;99.90
15231;DHT22;32569;51.762;8.564;2023-05-27T02:29:28;8.70;99.90
15231;DHT22;32569;51.762;8.564;2023-05-27T02:31:55;8.60;99.90
15231;DHT22;32569;51.762;8.564;2023-05-27T02:34:25;8.50;99.90
15231;DHT22;32569;51.762;8.564;2023-05-27T02:36:51;8.60;99.90
15231;DHT22;32569;51.762;8.564;2023-05-27T02:39:18;8.60;99.90
15231;DHT22;32569;51.762;8.564;2023-05-27T02:41:48;8.60;99.90
15231;DHT22;32569;51.762;8.564;2023-05-27T02:44:14;8.70;99.90
15231;DHT22;32569;51.762;8.564;2023-05-27T02:46:42;8.50;99.90
15231;DHT22;32569;51.762;8.564;2023-05-27T02:49:09;8.50;99.90
15231;DHT22;32569;51.762;8.564;2023-05-27T02:51:36;8.40;99.90
15231;DHT22;32569;51.762;8.564;2023-05-27T02:54:02;8.30;99.90
15231;DHT22;32569;51.762;8.564;2023-05-27T02:56:32;8.30;99.90
15231;DHT22;32569;51.762;8.564;2023-05-27T02:58:59;8.30;99.90
15231;DHT22;32569;51.762;8.564;2023-05-27T03:01:25;8.20;99.90
15231;DHT22;32569;51.762;8.564;2023-05-27T03:03:53;8.20;99.90
15231;DHT22;32569;51.762;8.564;2023-05-27T03:06:20;8.20;99.90
15231;DHT22;32569;51.762;8.564;2023-05-27T03:08:47;8.20;99.90
15231;DHT22;32569;51.762;8.564;2023-05-27T03:11:13;8.20;99.90
15231;DHT22;32569;51.762;8.564;2023-05-27T03:13:40;8.10;99.90
15231;DHT22;32569;51.762;8.564;2023-05-27T03:16:07;8.00;99.90
15231;DHT22;32569;51.762;8.564;2023-05-27T03:18:33;8.10;99.90
15231;DHT22;32569;51.762;8.564;2023-05-27T03:21:01;8.00;99.90
15231;DHT22;32569;51.762;8.564;2023-05-27T03:23:28;7.90;99.90
15231;DHT22;32569;51.762;8.564;2023-05-27T03:25:54;7.90;99.90
15231;DHT22;32569;51.762;8.564;2023-05-27T03:28:21;7.80;99.90
15231;DHT22;32569;51.762;8.564;2023-05-27T03:30:48;7.90;99.90
15231;DHT22;32569;51.762;8.564;2023-05-27T03:33:15;7.80;99.90
15231;DHT22;32569;51.762;8.564;2023-05-27T03:35:41;7.80;99.90
15231;DHT22;32569;51.762;8.564;2023-05-27T03:38:09;8.00;99.90
15231;DHT22;32569;51.762;8.564;2023-05-27T03:40:36;8.00;99.90
15231;DHT22;32569;51.762;8.564;2023-05-27T03:43:02;7.90;99.90
15231;DHT22;32569;51.762;8.564;2023-05-27T03:45:29;7.90;99.90
15231;DHT22;32569;51.762;8.564;2023-05-27T03:47:56;7.90;99.90
15231;DHT22;32569;51.762;8.564;2023-05-27T03:50:23;7.90;99.90
15231;DHT22;32569;51.762;8.564;2023-05-27T03:52:49;8.00;99.90
15231;DHT22;32569;51.762;8.564;2023-05-27T03:55:17;8.10;99.90
15231;DHT22;32569;51.762;8.564;2023-05-27T03:57:46;8.10;99.90
15231;DHT22;32569;51.762;8.564;2023-05-27T04:00:13;8.20;99.90
15231;DHT22;32569;51.762;8.564;2023-05-27T04:02:41;8.40;99.90
15231;DHT22;32569;51.762;8.564;2023-05-27T04:05:08;8.30;99.90
15231;DHT22;32569;51.762;8.564;2023-05-27T04:07:36;8.40;99.90
15231;DHT22;32569;51.762;8.564;2023-05-27T04:10:03;8.30;99.90
15231;DHT22;32569;51.762;8.564;2023-05-27T04:12:33;8.30;99.90
15231;DHT22;32569;51.762;8.564;2023-05-27T04:15:00;8.20;99.90
15231;DHT22;32569;51.762;8.564;2023-05-27T04:17:27;8.30;99.90
15231;DHT22;32569;51.762;8.564;2023-05-27T04:19:53;8.40;99.90
15231;DHT22;32569;51.762;8.564;2023-05-27T04:22:20;8.40;99.90
15231;DHT22;32569;51.762;8.564;2023-05-27T04:24:47;8.40;99.90
15231;DHT22;32569;51.762;8.564;2023-05-27T04:27:14;8.30;99.90
15231;DHT22;32569;51.762;8.564;2023-05-27T04:29:43;8.60;99.90
15231;DHT22;32569;51.762;8.564;2023-05-27T04:32:10;8.70;99.90
15231;DHT22;32569;51.762;8.564;2023-05-27T04:34:37;8.70;99.90
15231;DHT22;32569;51.762;8.564;2023-05-27T04:37:10;8.70;99.90
15231;DHT22;32569;51.762;8.564;2023-05-27T04:39:36;8.90;99.90
15231;DHT22;32569;51.762;8.564;2023-05-27T04:42:06;9.00;99.90
15231;DHT22;32569;51.762;8.564;2023-05-27T04:44:34;9.10;99.90
15231;DHT22;32569;51.762;8.564;2023-05-27T04:47:02;9.30;99.90
15231;DHT22;32569;51.762;8.564;2023-05-27T04:49:29;9.30;99.90
15231;DHT22;32569;51.762;8.564;2023-05-27T04:51:55;9.50;99.90
15231;DHT22;32569;51.762;8.564;2023-05-27T04:54:23;9.90;99.90
15231;DHT22;32569;51.762;8.564;2023-05-27T04:56:49;10.10;99.90
15231;DHT22;32569;51.762;8.564;2023-05-27T04:59:17;10.20;99.90
15231;DHT22;32569;51.762;8.564;2023-05-27T05:01:45;10.30;99.90
15231;DHT22;32569;51.762;8.564;2023-05-27T05:04:33;10.40;99.90
15231;DHT22;32569;51.762;8.564;2023-05-27T05:07:00;10.50;99.90
15231;DHT22;32569;51.762;8.564;2023-05-27T05:09:26;10.50;99.90
15231;DHT22;32569;51.762;8.564;2023-05-27T05:11:53;10.60;99.90
15231;DHT22;32569;51.762;8.564;2023-05-27T05:14:20;10.80;99.90
15231;DHT22;32569;51.762;8.564;2023-05-27T05:16:49;10.90;99.90
15231;DHT22;32569;51.762;8.564;2023-05-27T05:19:16;11.00;99.90
15231;DHT22;32569;51.762;8.564;2023-05-27T05:21:44;11.40;99.90
15231;DHT22;32569;51.762;8.564;2023-05-27T05:24:10;11.80;99.90
15231;DHT22;32569;51.762;8.564;2023-05-27T05:26:37;11.80;99.90
15231;DHT22;32569;51.762;8.564;2023-05-27T05:29:03;11.70;99.90
15231;DHT22;32569;51.762;8.564;2023-05-27T05:31:31;11.70;99.90
15231;DHT22;32569;51.762;8.564;2023-05-27T05:33:57;12.00;99.90
15231;DHT22;32569;51.762;8.564;2023-05-27T05:36:24;12.10;99.90
15231;DHT22;32569;51.762;8.564;2023-05-27T05:38:52;12.10;99.90
15231;DHT22;32569;51.762;8.564;2023-05-27T05:41:19;12.00;99.90
15231;DHT22;32569;51.762;8.564;2023-05-27T05:43:45;12.00;99.90
15231;DHT22;32569;51.762;8.564;2023-05-27T05:46:12;12.10;99.90
15231;DHT22;32569;51.762;8.564;2023-05-27T05:48:38;12.20;99.90
15231;DHT22;32569;51.762;8.564;2023-05-27T05:51:05;12.30;99.90
15231;DHT22;32569;51.762;8.564;2023-05-27T05:53:32;12.40;99.90
15231;DHT22;32569;51.762;8.564;2023-05-27T05:56:00;12.60;99.90
15231;DHT22;32569;51.762;8.564;2023-05-27T05:58:26;12.70;99.90
15231;DHT22;32569;51.762;8.564;2023-05-27T06:00:53;13.00;99.90
15231;DHT22;32569;51.762;8.564;2023-05-27T06:03:20;13.20;99.30
15231;DHT22;32569;51.762;8.564;2023-05-27T06:05:46;13.30;99.30
15231;DHT22;32569;51.762;8.564;2023-05-27T06:08:13;13.20;99.20
15231;DHT22;32569;51.762;8.564;2023-05-27T06:10:41;13.20;99.60
15231;DHT22;32569;51.762;8.564;2023-05-27T06:13:09;13.00;99.80
15231;DHT22;32569;51.762;8.564;2023-05-27T06:15:36;13.30;99.70
15231;DHT22;32569;51.762;8.564;2023-05-27T06:18:04;13.70;99.30
15231;DHT22;32569;51.762;8.564;2023-05-27T06:20:30;13.70;98.90
15231;DHT22;32569;51.762;8.564;2023-05-27T06:22:57;13.70;98.90
15231;DHT22;32569;51.762;8.564;2023-05-27T06:25:23;14.10;98.50
15231;DHT22;32569;51.762;8.564;2023-05-27T06:27:50;14.20;98.00
15231;DHT22;32569;51.762;8.564;2023-05-27T06:30:18;14.30;98.30
15231;DHT22;32569;51.762;8.564;2023-05-27T06:32:45;14.30;97.90
15231;DHT22;32569;51.762;8.564;2023-05-27T06:35:11;14.10;98.00
15231;DHT22;32569;51.762;8.564;2023-05-27T06:37:38;14.30;97.90
15231;DHT22;32569;51.762;8.564;2023-05-27T06:40:05;14.50;97.80
15231;DHT22;32569;51.762;8.564;2023-05-27T06:42:32;14.30;97.50
15231;DHT22;32569;51.762;8.564;2023-05-27T06:44:59;13.90;98.30
15231;DHT22;32569;51.762;8.564;2023-05-27T06:47:27;13.60;98.80
15231;DHT22;32569;51.762;8.564;2023-05-27T06:49:54;13.40;98.90
15231;DHT22;32569;51.762;8.564;2023-05-27T06:52:20;13.20;99.50
15231;DHT22;32569;51.762;8.564;2023-05-27T06:54:47;13.00;99.70
15231;DHT22;32569;51.762;8.564;2023-05-27T06:57:14;13.00;99.90
15231;DHT22;32569;51.762;8.564;2023-05-27T06:59:41;13.10;99.90
15231;DHT22;32569;51.762;8.564;2023-05-27T07:02:07;13.20;99.60
15231;DHT22;32569;51.762;8.564;2023-05-27T07:04:35;13.20;99.50
15231;DHT22;32569;51.762;8.564;2023-05-27T07:07:02;13.20;99.80
15231;DHT22;32569;51.762;8.564;2023-05-27T07:09:29;13.20;99.60
15231;DHT22;32569;51.762;8.564;2023-05-27T07:11:55;13.30;99.50
15231;DHT22;32569;51.762;8.564;2023-05-27T07:14:22;13.30;99.30
15231;DHT22;32569;51.762;8.564;2023-05-27T07:16:49;13.30;99.70
15231;DHT22;32569;51.762;8.564;2023-05-27T07:19:18;13.40;99.60
15231;DHT22;32569;51.762;8.564;2023-05-27T07:21:46;13.40;99.30
15231;DHT22;32569;51.762;8.564;2023-05-27T07:24:12;13.40;99.50
15231;DHT22;32569;51.762;8.564;2023-05-27T07:26:39;13.50;99.00
15231;DHT22;32569;51.762;8.564;2023-05-27T07:29:05;13.40;99.10
15231;DHT22;32569;51.762;8.564;2023-05-27T07:31:32;13.50;99.10
15231;DHT22;32569;51.762;8.564;2023-05-27T07:33:59;13.60;99.40
15231;DHT22;32569;51.762;8.564;2023-05-27T07:36:25;13.60;99.20
15231;DHT22;32569;51.762;8.564;2023-05-27T07:38:53;13.70;99.10
15231;DHT22;32569;51.762;8.564;2023-05-27T07:41:20;13.80;99.40
15231;DHT22;32569;51.762;8.564;2023-05-27T07:43:47;14.00;99.40
15231;DHT22;32569;51.762;8.564;2023-05-27T07:46:14;14.10;99.30
15231;DHT22;32569;51.762;8.564;2023-05-27T07:48:40;14.10;98.60
15231;DHT22;32569;51.762;8.564;2023-05-27T07:51:07;14.20;98.50
15231;DHT22;32569;51.762;8.564;2023-05-27T07:53:34;14.30;97.90
15231;DHT22;32569;51.762;8.564;2023-05-27T07:56:02;14.20;98.10
15231;DHT22;32569;51.762;8.564;2023-05-27T07:58:29;14.30;98.10
15231;DHT22;32569;51.762;8.564;2023-05-27T08:00:55;14.40;98.30
15231;DHT22;32569;51.762;8.564;2023-05-27T08:03:22;14.50;98.40
15231;DHT22;32569;51.762;8.564;2023-05-27T08:05:49;14.60;97.40
15231;DHT22;32569;51.762;8.564;2023-05-27T08:08:16;14.50;98.00
15231;DHT22;32569;51.762;8.564;2023-05-27T08:10:42;14.60;98.20
15231;DHT22;32569;51.762;8.564;2023-05-27T08:13:13;14.80;97.90
15231;DHT22;32569;51.762;8.564;2023-05-27T08:15:39;14.80;97.30
15231;DHT22;32569;51.762;8.564;2023-05-27T08:18:06;14.90;97.60
15231;DHT22;32569;51.762;8.564;2023-05-27T08:20:33;15.00;96.80
15231;DHT22;32569;51.762;8.564;2023-05-27T08:22:59;15.10;96.50
15231;DHT22;32569;51.762;8.564;2023-05-27T08:25:26;15.10;96.30
15231;DHT22;32569;51.762;8.564;2023-05-27T08:27:53;15.20;96.20
15231;DHT22;32569;51.762;8.564;2023-05-27T08:30:23;15.30;95.80
15231;DHT22;32569;51.762;8.564;2023-05-27T08:32:51;15.30;94.50
15231;DHT22;32569;51.762;8.564;2023-05-27T08:35:21;15.30;94.70
15231;DHT22;32569;51.762;8.564;2023-05-27T08:37:48;15.30;95.50
15231;DHT22;32569;51.762;8.564;2023-05-27T08:40:18;15.40;96.00
15231;DHT22;32569;51.762;8.564;2023-05-27T08:42:46;15.50;95.40
15231;DHT22;32569;51.762;8.564;2023-05-27T08:45:12;15.50;94.90
15231;DHT22;32569;51.762;8.564;2023-05-27T08:47:41;15.50;95.20
15231;DHT22;32569;51.762;8.564;2023-05-27T08:50:09;15.50;94.80
15231;DHT22;32569;51.762;8.564;2023-05-27T08:52:46;15.60;94.80
15231;DHT22;32569;51.762;8.564;2023-05-27T08:55:15;15.60;94.70
15231;DHT22;32569;51.762;8.564;2023-05-27T08:57:46;15.50;94.80
15231;DHT22;32569;51.762;8.564;2023-05-27T09:00:16;15.70;94.90
15231;DHT22;32569;51.762;8.564;2023-05-27T09:02:44;15.80;94.00
15231;DHT22;32569;51.762;8.564;2023-05-27T09:05:12;16.00;93.70
15231;DHT22;32569;51.762;8.564;2023-05-27T09:07:39;16.10;94.00
15231;DHT22;32569;51.762;8.564;2023-05-27T09:10:06;16.20;93.90
15231;DHT22;32569;51.762;8.564;2023-05-27T09:12:34;16.10;93.30
15231;DHT22;32569;51.762;8.564;2023-05-27T09:15:01;16.20;93.30
15231;DHT22;32569;51.762;8.564;2023-05-27T09:17:29;16.10;93.40
15231;DHT22;32569;51.762;8.564;2023-05-27T09:19:57;16.10;93.70
15231;DHT22;32569;51.762;8.564;2023-05-27T09:22:28;16.20;93.60
15231;DHT22;32569;51.762;8.564;2023-05-27T09:24:56;16.40;93.70
15231;DHT22;32569;51.762;8.564;2023-05-27T09:27:24;16.30;93.20
15231;DHT22;32569;51.762;8.564;2023-05-27T09:29:53;16.30;93.80
15231;DHT22;32569;51.762;8.564;2023-05-27T09:32:24;16.40;93.90
15231;DHT22;32569;51.762;8.564;2023-05-27T09:34:52;16.40;94.00
15231;DHT22;32569;51.762;8.564;2023-05-27T09:37:24;16.50;93.30
15231;DHT22;32569;51.762;8.564;2023-05-27T09:39:51;16.60;93.90
15231;DHT22;32569;51.762;8.564;2023-05-27T09:42:19;16.70;93.30
15231;DHT22;32569;51.762;8.564;2023-05-27T09:44:46;16.70;92.80
15231;DHT22;32569;51.762;8.564;2023-05-27T09:47:16;16.70;93.00
15231;DHT22;32569;51.762;8.564;2023-05-27T09:49:48;16.80;92.80
15231;DHT22;32569;51.762;8.564;2023-05-27T09:52:17;16.70;93.10
15231;DHT22;32569;51.762;8.564;2023-05-27T09:54:48;17.00;92.30
15231;DHT22;32569;51.762;8.564;2023-05-27T09:57:16;17.00;91.90
15231;DHT22;32569;51.762;8.564;2023-05-27T09:59:45;17.10;92.70
15231;DHT22;32569;51.762;8.564;2023-05-27T10:02:16;17.10;92.10
15231;DHT22;32569;51.762;8.564;2023-05-27T10:04:44;17.00;91.50
15231;DHT22;32569;51.762;8.564;2023-05-27T10:07:15;17.10;91.50
15231;DHT22;32569;51.762;8.564;2023-05-27T10:09:45;17.10;91.40
15231;DHT22;32569;51.762;8.564;2023-05-27T10:12:14;17.20;91.80
15231;DHT22;32569;51.762;8.564;2023-05-27T10:14:41;17.20;92.00
15231;DHT22;32569;51.762;8.564;2023-05-27T10:17:09;17.20;91.60
15231;DHT22;32569;51.762;8.564;2023-05-27T10:19:36;17.10;92.60
15231;DHT22;32569;51.762;8.564;2023-05-27T10:22:10;17.30;92.50
15231;DHT22;32569;51.762;8.564;2023-05-27T10:24:39;17.30;92.30
15231;DHT22;32569;51.762;8.564;2023-05-27T10:27:06;17.30;92.80
15231;DHT22;32569;51.762;8.564;2023-05-27T10:29:38;17.40;91.70
15231;DHT22;32569;51.762;8.564;2023-05-27T10:32:05;17.50;92.80
15231;DHT22;32569;51.762;8.564;2023-05-27T10:34:35;17.60;92.70
15231;DHT22;32569;51.762;8.564;2023-05-27T10:37:02;17.60;92.30
15231;DHT22;32569;51.762;8.564;2023-05-27T10:39:29;17.60;92.20
15231;DHT22;32569;51.762;8.564;2023-05-27T10:41:56;17.80;91.50
15231;DHT22;32569;51.762;8.564;2023-05-27T10:44:27;17.80;90.90
15231;DHT22;32569;51.762;8.564;2023-05-27T10:47:01;17.80;90.90
15231;DHT22;32569;51.762;8.564;2023-05-27T10:49:28;17.70;90.60
15231;DHT22;32569;51.762;8.564;2023-05-27T10:52:05;17.70;91.60
15231;DHT22;32569;51.762;8.564;2023-05-27T10:54:33;17.70;90.60
15231;DHT22;32569;51.762;8.564;2023-05-27T10:57:02;17.80;90.40
15231;DHT22;32569;51.762;8.564;2023-05-27T10:59:38;17.90;90.90
15231;DHT22;32569;51.762;8.564;2023-05-27T11:02:07;17.80;90.80
15231;DHT22;32569;51.762;8.564;2023-05-27T11:04:34;17.90;91.30
15231;DHT22;32569;51.762;8.564;2023-05-27T11:07:02;17.90;90.70
15231;DHT22;32569;51.762;8.564;2023-05-27T11:09:28;18.00;91.00
15231;DHT22;32569;51.762;8.564;2023-05-27T11:11:55;18.10;91.00
15231;DHT22;32569;51.762;8.564;2023-05-27T11:14:23;18.00;90.90
15231;DHT22;32569;51.762;8.564;2023-05-27T11:16:50;18.10;91.00
15231;DHT22;32569;51.762;8.564;2023-05-27T11:19:19;18.30;91.40
15231;DHT22;32569;51.762;8.564;2023-05-27T11:21:47;18.40;90.60
15231;DHT22;32569;51.762;8.564;2023-05-27T11:24:17;18.20;90.40
15231;DHT22;32569;51.762;8.564;2023-05-27T11:26:46;18.10;90.80
15231;DHT22;32569;51.762;8.564;2023-05-27T11:29:14;18.10;91.00
15231;DHT22;32569;51.762;8.564;2023-05-27T11:31:41;18.10;91.00
15231;DHT22;32569;51.762;8.564;2023-05-27T11:34:12;18.10;90.80
15231;DHT22;32569;51.762;8.564;2023-05-27T11:36:43;18.10;91.00
15231;DHT22;32569;51.762;8.564;2023-05-27T11:39:11;18.30;90.90
15231;DHT22;32569;51.762;8.564;2023-05-27T11:41:48;18.30;91.30
15231;DHT22;32569;51.762;8.564;2023-05-27T11:44:15;18.30;90.70
15231;DHT22;32569;51.762;8.564;2023-05-27T11:46:44;18.40;90.80
15231;DHT22;32569;51.762;8.564;2023-05-27T11:49:14;18.40;91.40
15231;DHT22;32569;51.762;8.564;2023-05-27T11:51:43;18.40;91.00
15231;DHT22;32569;51.762;8.564;2023-05-27T11:54:18;18.60;91.50
15231;DHT22;32569;51.762;8.564;2023-05-27T11:56:45;18.80;91.60
15231;DHT22;32569;51.762;8.564;2023-05-27T11:59:12;18.80;90.70
15231;DHT22;32569;51.762;8.564;2023-05-27T12:01:39;18.70;90.50
15231;DHT22;32569;51.762;8.564;2023-05-27T12:04:06;18.60;90.80
15231;DHT22;32569;51.762;8.564;2023-05-27T12:06:32;18.70;90.30
15231;DHT22;32569;51.762;8.564;2023-05-27T12:09:02;18.70;90.70
15231;DHT22;32569;51.762;8.564;2023-05-27T12:11:28;18.70;90.80
15231;DHT22;32569;51.762;8.564;2023-05-27T12:13:55;18.80;90.60
15231;DHT22;32569;51.762;8.564;2023-05-27T12:16:22;18.90;90.10
15231;DHT22;32569;51.762;8.564;2023-05-27T12:18:48;18.90;89.30
15231;DHT22;32569;51.762;8.564;2023-05-27T12:21:16;19.00;89.70
15231;DHT22;32569;51.762;8.564;2023-05-27T12:23:43;19.00;90.60
15231;DHT22;32569;51.762;8.564;2023-05-27T12:26:12;19.10;89.40
15231;DHT22;32569;51.762;8.564;2023-05-27T12:28:39;19.10;89.40
15231;DHT22;32569;51.762;8.564;2023-05-27T12:31:06;19.20;89.80
15231;DHT22;32569;51.762;8.564;2023-05-27T12:33:33;19.20;90.10
15231;DHT22;32569;51.762;8.564;2023-05-27T12:36:01;19.30;89.20
15231;DHT22;32569;51.762;8.564;2023-05-27T12:38:30;19.20;89.40
15231;DHT22;32569;51.762;8.564;2023-05-27T12:40:57;19.30;90.30
15231;DHT22;32569;51.762;8.564;2023-05-27T12:43:25;19.40;90.50
15231;DHT22;32569;51.762;8.564;2023-05-27T12:45:52;19.50;90.20
15231;DHT22;32569;51.762;8.564;2023-05-27T12:48:20;19.60;89.70
15231;DHT22;32569;51.762;8.564;2023-05-27T12:50:47;19.50;87.60
15231;DHT22;32569;51.762;8.564;2023-05-27T12:53:13;19.50;88.10
15231;DHT22;32569;51.762;8.564;2023-05-27T12:55:42;19.30;88.30
15231;DHT22;32569;51.762;8.564;2023-05-27T12:58:10;19.50;88.80
15231;DHT22;32569;51.762;8.564;2023-05-27T13:00:38;19.50;87.50
15231;DHT22;32569;51.762;8.564;2023-05-27T13:03:05;19.50;89.00
15231;DHT22;32569;51.762;8.564;2023-05-27T13:05:32;19.50;89.30
15231;DHT22;32569;51.762;8.564;2023-05-27T13:08:00;19.50;89.30
15231;DHT22;32569;51.762;8.564;2023-05-27T13:10:28;19.50;89.70
15231;DHT22;32569;51.762;8.564;2023-05-27T13:12:56;19.60;89.20
15231;DHT22;32569;51.762;8.564;2023-05-27T13:15:22;19.60;89.30
15231;DHT22;32569;51.762;8.564;2023-05-27T13:17:51;19.70;88.30
15231;DHT22;32569;51.762;8.564;2023-05-27T13:20:19;19.70;88.60
15231;DHT22;32569;51.762;8.564;2023-05-27T13:22:46;19.70;88.60
15231;DHT22;32569;51.762;8.564;2023-05-27T13:25:14;19.80;88.10
15231;DHT22;32569;51.762;8.564;2023-05-27T13:27:41;19.90;88.00
15231;DHT22;32569;51.762;8.564;2023-05-27T13:30:12;19.90;88.40
15231;DHT22;32569;51.762;8.564;2023-05-27T13:32:39;20.00;87.90
15231;DHT22;32569;51.762;8.564;2023-05-27T13:35:07;20.10;87.60
15231;DHT22;32569;51.762;8.564;2023-05-27T13:37:34;20.20;88.50
15231;DHT22;32569;51.762;8.564;2023-05-27T13:40:01;20.20;87.00
15231;DHT22;32569;51.762;8.564;2023-05-27T13:42:35;20.10;86.80
15231;DHT22;32569;51.762;8.564;2023-05-27T13:45:03;20.10;86.60
15231;DHT22;32569;51.762;8.564;2023-05-27T13:47:29;20.10;85.80
15231;DHT22;32569;51.762;8.564;2023-05-27T13:49:56;20.10;86.50
15231;DHT22;32569;51.762;8.564;2023-05-27T13:52:24;20.10;88.10
15231;DHT22;32569;51.762;8.564;2023-05-27T13:54:51;20.30;87.90
15231;DHT22;32569;51.762;8.564;2023-05-27T13:57:17;20.30;86.60
15231;DHT22;32569;51.762;8.564;2023-05-27T13:59:44;20.20;87.30
15231;DHT22;32569;51.762;8.564;2023-05-27T14:02:11;20.20;88.80
15231;DHT22;32569;51.762;8.564;2023-05-27T14:04:37;20.30;87.20
15231;DHT22;32569;51.762;8.564;2023-05-27T14:07:04;20.40;88.40
15231;DHT22;32569;51.762;8.564;2023-05-27T14:09:34;20.50;86.80
15231;DHT22;32569;51.762;8.564;2023-05-27T14:12:00;20.40;87.00
15231;DHT22;32569;51.762;8.564;2023-05-27T14:14:27;20.30;87.30
15231;DHT22;32569;51.762;8.564;2023-05-27T14:16:54;20.20;89.50
15231;DHT22;32569;51.762;8.564;2023-05-27T14:19:22;20.10;88.30
15231;DHT22;32569;51.762;8.564;2023-05-27T14:21:48;20.10;88.40
15231;DHT22;32569;51.762;8.564;2023-05-27T14:24:15;20.20;88.30
15231;DHT22;32569;51.762;8.564;2023-05-27T14:26:43;20.20;88.10
15231;DHT22;32569;51.762;8.564;2023-05-27T14:29:10;20.10;88.00
15231;DHT22;32569;51.762;8.564;2023-05-27T14:31:36;20.20;89.00
15231;DHT22;32569;51.762;8.564;2023-05-27T14:34:03;20.20;89.10
15231;DHT22;32569;51.762;8.564;2023-05-27T14:36:30;20.20;88.00
15231;DHT22;32569;51.762;8.564;2023-05-27T14:38:57;20.40;87.60
15231;DHT22;32569;51.762;8.564;2023-05-27T14:41:24;20.40;87.50
15231;DHT22;32569;51.762;8.564;2023-05-27T14:43:53;20.40;88.40
15231;DHT22;32569;51.762;8.564;2023-05-27T14:46:40;20.50;88.30
15231;DHT22;32569;51.762;8.564;2023-05-27T14:49:06;20.70;86.00
15231;DHT22;32569;51.762;8.564;2023-05-27T14:51:33;20.70;87.70
15231;DHT22;32569;51.762;8.564;2023-05-27T14:54:00;20.60;86.80
15231;DHT22;32569;51.762;8.564;2023-05-27T14:56:26;20.40;86.30
15231;DHT22;32569;51.762;8.564;2023-05-27T14:58:54;20.40;87.60
15231;DHT22;32569;51.762;8.564;2023-05-27T15:01:21;20.50;87.10
15231;DHT22;32569;51.762;8.564;2023-05-27T15:03:48;20.50;87.20
15231;DHT22;32569;51.762;8.564;2023-05-27T15:06:14;20.50;88.20
15231;DHT22;32569;51.762;8.564;2023-05-27T15:08:41;20.60;86.40
15231;DHT22;32569;51.762;8.564;2023-05-27T15:11:08;20.70;86.20
15231;DHT22;32569;51.762;8.564;2023-05-27T15:13:34;20.60;86.80
15231;DHT22;32569;51.762;8.564;2023-05-27T15:16:02;20.70;86.60
15231;DHT22;32569;51.762;8.564;2023-05-27T15:18:29;20.80;86.00
15231;DHT22;32569;51.762;8.564;2023-05-27T15:20:56;20.80;85.60
15231;DHT22;32569;51.762;8.564;2023-05-27T15:23:22;20.90;85.50
15231;DHT22;32569;51.762;8.564;2023-05-27T15:25:49;20.90;85.30
15231;DHT22;32569;51.762;8.564;2023-05-27T15:28:16;21.00;85.50
15231;DHT22;32569;51.762;8.564;2023-05-27T15:30:42;21.00;85.90
15231;DHT22;32569;51.762;8.564;2023-05-27T15:33:10;21.10;86.00
15231;DHT22;32569;51.762;8.564;2023-05-27T15:35:37;21.30;84.90
15231;DHT22;32569;51.762;8.564;2023-05-27T15:38:04;21.30;84.50